Terminal Aerodrome Forecast
Issued by NWS

Home | Current Version | Previous Version | Text Only | Print | Product List | Glossary On
Versions: 1 2 3 4 5 6 7 8 9 10 11 12 13 14
000
FTUS45 KFGZ 301736
TAFSEZ
TAF
KSEZ 301736Z 3018/3118 08008KT P6SM SCT040 BKN070
      TEMPO 3020/3024 VRB15G25KT 5SM -TSRA BKN080CB
     FM310200 VRB06KT P6SM BKN110=

USA.gov is the U.S. government's official web portal to all federal, state and local government web resources and services.